Time;durP1;ratioP1;P1;durP2;ratioP2;P2;SDS_P1;SDS_P2;PMS_P1;PMS_P2;Temp;Humidity;BMP_temperature;BMP_pressure;BME280_temperature;BME280_humidity;BME280_pressure;Samples;Min_cycle;Max_cycle;Signal;HPM_P1;HPM_P2
2023/01/22 00:01:08;;;;;;;5.68;3.38;;;17.40;31.30;;;;;;5072270;28;20211;-70
2023/01/22 00:03:37;;;;;;;4.95;3.47;;;17.40;31.30;;;;;;5072157;28;20225;-70
2023/01/22 00:06:05;;;;;;;4.55;3.60;;;17.40;31.30;;;;;;5071821;28;20700;-70
2023/01/22 00:08:32;;;;;;;6.03;3.95;;;17.40;31.30;;;;;;5036943;28;20218;-71
2023/01/22 00:11:00;;;;;;;4.70;3.97;;;17.40;31.20;;;;;;5071832;28;20761;-71
2023/01/22 00:13:28;;;;;;;6.60;3.72;;;17.40;31.90;;;;;;5072138;28;20191;-71
2023/01/22 00:15:57;;;;;;;5.20;3.65;;;17.40;31.30;;;;;;5071732;28;20268;-71
2023/01/22 00:18:24;;;;;;;4.38;3.63;;;17.40;31.20;;;;;;5072166;28;20191;-70
2023/01/22 00:20:54;;;;;;;4.60;3.53;;;17.40;31.20;;;;;;5072077;28;20280;-70
2023/01/22 00:23:22;;;;;;;4.47;3.55;;;17.30;31.10;;;;;;5072594;28;20240;-71
2023/01/22 00:25:49;;;;;;;5.32;3.45;;;17.30;31.10;;;;;;5071994;28;20215;-70
2023/01/22 00:28:16;;;;;;;7.38;3.80;;;17.30;31.10;;;;;;5071779;28;20267;-70
2023/01/22 00:30:43;;;;;;;5.47;3.63;;;17.30;31.10;;;;;;5071567;28;20215;-71
2023/01/22 00:33:11;;;;;;;5.20;3.85;;;17.30;31.10;;;;;;5071816;28;20187;-70
2023/01/22 00:35:38;;;;;;;6.30;3.80;;;17.30;31.10;;;;;;5071816;28;20704;-70
2023/01/22 00:38:07;;;;;;;5.32;3.80;;;17.30;31.10;;;;;;5071754;28;20249;-70
2023/01/22 00:40:34;;;;;;;5.47;3.75;;;17.30;31.20;;;;;;5073120;28;20214;-70
2023/01/22 00:43:01;;;;;;;5.00;3.80;;;17.30;31.10;;;;;;5075463;28;20248;-70
2023/01/22 00:45:29;;;;;;;6.20;3.55;;;17.30;31.10;;;;;;5076013;28;20233;-70
2023/01/22 00:47:56;;;;;;;6.07;3.85;;;17.30;31.10;;;;;;5075001;28;20198;-70
2023/01/22 00:50:23;;;;;;;5.13;3.55;;;17.30;31.10;;;;;;5074937;28;20268;-70
2023/01/22 00:52:51;;;;;;;4.35;3.67;;;17.30;31.00;;;;;;5073960;28;20195;-70
2023/01/22 00:55:19;;;;;;;5.88;4.03;;;17.30;31.00;;;;;;5074709;28;20754;-70
2023/01/22 00:57:46;;;;;;;5.25;3.63;;;17.20;31.00;;;;;;5075614;28;20202;-70
2023/01/22 01:00:16;;;;;;;5.95;4.10;;;17.20;31.00;;;;;;5075365;28;20195;-71
2023/01/22 01:05:25;;;;;;;6.55;4.70;;;17.20;31.00;;;;;;5074513;28;20237;-70
2023/01/22 01:07:52;;;;;;;4.78;3.90;;;17.20;31.00;;;;;;5075052;28;20252;-70
2023/01/22 01:10:20;;;;;;;5.45;4.05;;;17.20;31.00;;;;;;5074772;28;20626;-70
2023/01/22 01:12:47;;;;;;;5.63;4.10;;;17.20;31.00;;;;;;5072572;28;20668;-71
2023/01/22 01:15:14;;;;;;;5.57;3.92;;;17.20;31.00;;;;;;5073739;28;20199;-71
2023/01/22 01:17:42;;;;;;;5.25;4.03;;;17.20;30.90;;;;;;5074669;28;20241;-70
2023/01/22 01:20:10;;;;;;;3.97;3.40;;;17.20;31.00;;;;;;5074808;28;20191;-71
2023/01/22 01:22:37;;;;;;;5.80;4.10;;;17.20;31.00;;;;;;5073315;28;20730;-70
2023/01/22 01:25:05;;;;;;;5.25;4.32;;;17.20;31.30;;;;;;5074970;28;20187;-70
2023/01/22 01:27:33;;;;;;;6.65;4.07;;;17.20;31.00;;;;;;5073372;28;20245;-70
2023/01/22 01:30:00;;;;;;;5.43;4.03;;;17.20;31.00;;;;;;5074544;28;20614;-70
2023/01/22 01:32:27;;;;;;;5.60;4.43;;;17.10;30.90;;;;;;5074664;28;20219;-71
2023/01/22 01:34:55;;;;;;;6.20;4.75;;;17.10;30.90;;;;;;5074544;28;20609;-70
2023/01/22 01:37:22;;;;;;;8.15;5.20;;;17.10;30.90;;;;;;5073447;28;20268;-70
2023/01/22 01:39:51;;;;;;;6.78;4.78;;;17.10;30.90;;;;;;5074429;28;20187;-71
2023/01/22 01:42:25;;;;;;;7.88;4.78;;;17.10;30.90;;;;;;5074277;28;20215;-70
2023/01/22 01:45:24;;;;;;;7.43;5.45;;;17.10;30.90;;;;;;5074344;28;20194;-70
2023/01/22 01:47:59;;;;;;;7.20;5.15;;;17.10;30.90;;;;;;5034989;28;20779;-71
2023/01/22 01:50:28;;;;;;;7.90;5.60;;;17.10;30.90;;;;;;5051678;28;20681;-70
2023/01/22 01:52:56;;;;;;;6.90;5.03;;;17.10;30.90;;;;;;5029367;28;20258;-70
2023/01/22 01:55:28;;;;;;;7.43;5.03;;;17.10;30.90;;;;;;5047893;28;20281;-70
2023/01/22 01:57:58;;;;;;;8.13;5.78;;;17.10;30.90;;;;;;5050849;28;20567;-70
2023/01/22 02:00:28;;;;;;;7.90;5.65;;;17.10;30.90;;;;;;5050896;28;20238;-70
2023/01/22 02:02:57;;;;;;;6.97;5.53;;;17.10;30.90;;;;;;5050676;28;20196;-70
2023/01/22 02:05:27;;;;;;;8.40;5.82;;;17.00;30.70;;;;;;5050967;28;20207;-70
2023/01/22 02:07:54;;;;;;;8.30;5.95;;;17.00;30.80;;;;;;5051054;28;20708;-70
2023/01/22 02:10:22;;;;;;;8.35;5.68;;;17.10;30.90;;;;;;5050140;28;20219;-70
2023/01/22 02:12:49;;;;;;;9.55;6.28;;;17.00;30.70;;;;;;5051124;28;20192;-70
2023/01/22 02:15:16;;;;;;;7.22;5.63;;;17.00;30.70;;;;;;5050230;28;20281;-70
2023/01/22 02:17:43;;;;;;;8.13;6.25;;;17.00;30.70;;;;;;5050475;28;20200;-70
2023/01/22 02:20:13;;;;;;;10.18;6.75;;;17.00;30.70;;;;;;5050120;28;20200;-70
2023/01/22 02:22:42;;;;;;;7.80;6.00;;;17.00;30.70;;;;;;5050573;28;20241;-70
2023/01/22 02:25:09;;;;;;;9.13;6.40;;;17.00;30.70;;;;;;5064190;28;20661;-70
2023/01/22 02:27:37;;;;;;;10.63;6.28;;;17.00;30.70;;;;;;5073909;28;20214;-70
2023/01/22 02:30:06;;;;;;;10.00;6.72;;;17.00;30.70;;;;;;5072038;28;20309;-70
2023/01/22 02:32:33;;;;;;;7.97;5.78;;;17.00;30.70;;;;;;5071754;28;20279;-70
2023/01/22 02:35:00;;;;;;;8.10;5.63;;;17.00;30.60;;;;;;5072802;28;20612;-70
2023/01/22 02:37:27;;;;;;;8.10;5.95;;;16.90;30.60;;;;;;5072622;28;20256;-71
2023/01/22 02:39:56;;;;;;;8.32;6.03;;;16.90;30.60;;;;;;5071187;28;20230;-70
2023/01/22 02:42:23;;;;;;;8.02;6.20;;;16.90;30.60;;;;;;5072666;28;20746;-71
2023/01/22 02:44:51;;;;;;;8.07;5.95;;;16.90;30.60;;;;;;5072778;28;20549;-70
2023/01/22 02:47:19;;;;;;;10.45;6.60;;;16.90;30.60;;;;;;5073876;28;20219;-71
2023/01/22 02:49:46;;;;;;;8.23;6.07;;;16.90;30.60;;;;;;5072963;28;20210;-70
2023/01/22 02:52:13;;;;;;;8.60;5.90;;;16.90;30.60;;;;;;5072850;28;20265;-70
2023/01/22 02:54:40;;;;;;;8.82;6.22;;;16.90;30.60;;;;;;5072378;28;20186;-70
2023/01/22 02:57:09;;;;;;;10.73;6.40;;;16.90;30.60;;;;;;5071506;28;20273;-70
2023/01/22 02:59:36;;;;;;;8.05;6.20;;;16.90;30.60;;;;;;5072505;28;20203;-70
2023/01/22 03:02:03;;;;;;;8.60;6.15;;;16.90;30.60;;;;;;5071742;28;20261;-71
2023/01/22 03:04:30;;;;;;;8.90;6.80;;;16.90;30.60;;;;;;5071111;28;20244;-70
2023/01/22 03:06:57;;;;;;;8.95;6.93;;;16.90;30.60;;;;;;5071810;28;20215;-70
2023/01/22 03:09:24;;;;;;;9.48;6.22;;;16.90;30.60;;;;;;5071899;28;20268;-70
2023/01/22 03:11:51;;;;;;;8.65;6.70;;;16.90;30.60;;;;;;5072356;28;20218;-70
2023/01/22 03:22:33;;;;;;;11.00;6.97;;;16.80;30.40;;;;;;5072282;28;20209;-70
2023/01/22 03:25:00;;;;;;;10.18;6.90;;;16.80;30.40;;;;;;5071038;28;20240;-70
2023/01/22 03:27:28;;;;;;;9.07;6.65;;;16.80;30.40;;;;;;5072649;28;20264;-71
2023/01/22 03:29:57;;;;;;;9.45;6.90;;;16.80;30.50;;;;;;5071151;28;20272;-70
2023/01/22 03:32:25;;;;;;;9.50;6.75;;;16.80;30.40;;;;;;5072155;28;20217;-70
2023/01/22 03:34:52;;;;;;;9.48;6.63;;;16.80;30.40;;;;;;5072201;28;20187;-70
2023/01/22 03:37:20;;;;;;;9.82;6.93;;;16.80;30.40;;;;;;5070960;28;20222;-70
2023/01/22 03:39:47;;;;;;;9.05;6.45;;;16.80;30.40;;;;;;5070998;28;20194;-70
2023/01/22 03:42:14;;;;;;;11.25;7.50;;;16.80;30.40;;;;;;5072286;28;20210;-70
2023/01/22 03:44:41;;;;;;;9.10;6.60;;;16.80;30.50;;;;;;5070160;28;20187;-70
2023/01/22 03:47:10;;;;;;;9.63;6.75;;;16.80;30.40;;;;;;5053898;28;20219;-70
2023/01/22 03:49:37;;;;;;;10.02;6.70;;;16.80;30.40;;;;;;5071802;28;20222;-71
2023/01/22 03:52:04;;;;;;;10.90;6.72;;;16.70;30.40;;;;;;5071863;28;20253;-70
2023/01/22 03:54:31;;;;;;;11.45;7.20;;;16.70;30.40;;;;;;5071544;28;20260;-71
2023/01/22 03:56:58;;;;;;;8.38;6.80;;;16.80;30.40;;;;;;5072343;28;20218;-71
2023/01/22 03:59:25;;;;;;;9.40;6.93;;;16.70;30.40;;;;;;5070831;28;20268;-70
2023/01/22 04:01:52;;;;;;;9.48;7.20;;;16.70;30.40;;;;;;5071856;28;20211;-70
2023/01/22 04:04:21;;;;;;;10.35;6.95;;;16.70;30.40;;;;;;5071147;28;20249;-70
2023/01/22 04:06:48;;;;;;;9.27;6.60;;;16.70;30.40;;;;;;5071780;28;20249;-70
2023/01/22 04:09:15;;;;;;;8.95;6.57;;;16.70;30.40;;;;;;5071506;28;20190;-70
2023/01/22 04:11:43;;;;;;;10.25;7.07;;;16.70;30.60;;;;;;5071758;28;20272;-71
2023/01/22 04:14:10;;;;;;;8.65;6.43;;;16.70;30.40;;;;;;5071418;28;20183;-71
2023/01/22 04:16:37;;;;;;;9.00;6.63;;;16.70;30.40;;;;;;5074656;28;20273;-70
2023/01/22 04:19:04;;;;;;;8.75;6.78;;;16.70;30.40;;;;;;5075641;28;20260;-70
2023/01/22 04:21:32;;;;;;;8.15;6.13;;;16.70;30.40;;;;;;5075174;28;20649;-70
2023/01/22 04:23:59;;;;;;;9.45;6.70;;;16.70;30.30;;;;;;5075374;28;20615;-70
2023/01/22 04:26:26;;;;;;;11.25;7.68;;;16.70;30.30;;;;;;5075004;28;20720;-70
2023/01/22 04:28:54;;;;;;;8.55;6.50;;;16.70;30.30;;;;;;5074879;28;20187;-71
2023/01/22 04:31:21;;;;;;;10.50;6.47;;;16.60;30.30;;;;;;5074897;28;20238;-70
2023/01/22 04:33:48;;;;;;;7.93;6.07;;;16.60;30.20;;;;;;5075503;28;20236;-70
2023/01/22 04:36:16;;;;;;;9.32;6.18;;;16.70;30.40;;;;;;5075179;28;20757;-70
2023/01/22 04:38:45;;;;;;;10.65;6.70;;;16.60;30.20;;;;;;5075582;28;20226;-71
2023/01/22 04:41:12;;;;;;;8.10;6.82;;;16.60;30.30;;;;;;5075577;28;20211;-70
2023/01/22 04:43:39;;;;;;;8.77;6.55;;;16.60;30.20;;;;;;5075358;28;20187;-70
2023/01/22 04:46:06;;;;;;;8.85;6.72;;;16.60;30.20;;;;;;5075424;28;20269;-70
2023/01/22 04:48:33;;;;;;;9.20;6.28;;;16.60;30.20;;;;;;5075455;28;20187;-70
2023/01/22 04:51:01;;;;;;;11.25;6.85;;;16.60;30.30;;;;;;5075275;28;20287;-70
2023/01/22 04:53:28;;;;;;;8.90;6.03;;;16.60;30.30;;;;;;5073852;28;20641;-70
2023/01/22 04:55:56;;;;;;;8.40;6.43;;;16.60;30.30;;;;;;5074594;28;20628;-70
2023/01/22 04:58:24;;;;;;;8.63;6.13;;;16.60;30.30;;;;;;5075426;28;20264;-70
2023/01/22 05:00:51;;;;;;;9.57;6.72;;;16.60;30.30;;;;;;5074844;28;20706;-70
2023/01/22 05:03:18;;;;;;;8.40;5.88;;;16.60;30.20;;;;;;5074754;28;20233;-70
2023/01/22 05:05:45;;;;;;;9.93;5.97;;;16.60;30.30;;;;;;5074915;28;20183;-70
2023/01/22 05:08:12;;;;;;;7.70;6.20;;;16.60;30.20;;;;;;5074744;28;20190;-70
2023/01/22 05:10:39;;;;;;;9.60;5.97;;;16.50;30.20;;;;;;5074857;28;20260;-70
2023/01/22 05:13:07;;;;;;;9.32;6.55;;;16.50;30.10;;;;;;5074885;28;20195;-71
2023/01/22 05:15:35;;;;;;;12.02;6.75;;;16.50;30.10;;;;;;5073559;28;20194;-70
2023/01/22 05:18:02;;;;;;;10.32;6.00;;;16.50;30.10;;;;;;5074781;28;20190;-70
2023/01/22 05:20:29;;;;;;;9.35;5.72;;;16.60;30.20;;;;;;5074897;28;20389;-70
2023/01/22 05:22:56;;;;;;;9.40;6.00;;;16.50;30.10;;;;;;5074793;28;20634;-70
2023/01/22 05:25:23;;;;;;;8.43;6.22;;;16.50;30.20;;;;;;5074685;28;20245;-70
2023/01/22 05:27:50;;;;;;;8.27;6.28;;;16.50;30.10;;;;;;5074317;28;20629;-71
2023/01/22 05:30:20;;;;;;;9.05;6.07;;;16.50;30.20;;;;;;5074203;28;20214;-71
2023/01/22 05:32:47;;;;;;;9.02;6.30;;;16.50;30.10;;;;;;5074195;28;20700;-70
2023/01/22 05:35:14;;;;;;;8.38;6.03;;;16.50;30.10;;;;;;5074441;28;20248;-71
2023/01/22 05:37:41;;;;;;;8.32;5.75;;;16.50;30.10;;;;;;5073156;28;20260;-71
2023/01/22 05:40:10;;;;;;;8.82;6.18;;;16.50;30.10;;;;;;5074462;28;20263;-70
2023/01/22 05:42:37;;;;;;;9.35;6.47;;;16.50;30.20;;;;;;5074206;28;20769;-70
2023/01/22 05:45:05;;;;;;;7.72;5.45;;;16.50;30.80;;;;;;5074083;28;20237;-70
2023/01/22 05:47:33;;;;;;;9.10;6.65;;;16.50;30.10;;;;;;5073981;28;20221;-70
2023/01/22 05:50:00;;;;;;;9.07;6.07;;;16.50;30.10;;;;;;5073923;28;20601;-70
2023/01/22 05:52:27;;;;;;;8.57;6.18;;;16.40;30.10;;;;;;5073043;28;20215;-70
2023/01/22 05:54:55;;;;;;;7.90;6.03;;;16.50;30.10;;;;;;5073936;28;20288;-71
2023/01/22 05:57:22;;;;;;;10.18;5.78;;;16.50;30.20;;;;;;5074434;28;20214;-70
2023/01/22 05:59:49;;;;;;;10.25;6.00;;;16.40;30.10;;;;;;5074277;28;20198;-71
2023/01/22 06:02:16;;;;;;;9.48;6.18;;;16.40;30.10;;;;;;5072572;28;20671;-70
2023/01/22 06:04:44;;;;;;;8.30;5.70;;;16.40;30.10;;;;;;5073592;28;20240;-70
2023/01/22 06:07:12;;;;;;;8.10;5.90;;;16.40;30.10;;;;;;5074152;28;20211;-71
2023/01/22 06:09:39;;;;;;;8.40;6.45;;;16.40;30.10;;;;;;5073933;28;20249;-70
2023/01/22 06:12:06;;;;;;;8.63;6.28;;;16.40;30.00;;;;;;5073862;28;20592;-70
2023/01/22 06:14:33;;;;;;;9.60;6.03;;;16.40;30.10;;;;;;5074042;28;20195;-70
2023/01/22 06:17:01;;;;;;;8.20;5.40;;;16.40;30.00;;;;;;5073367;28;20260;-71
2023/01/22 06:19:28;;;;;;;7.07;5.30;;;16.40;30.10;;;;;;5073384;28;20722;-70
2023/01/22 06:21:57;;;;;;;7.85;5.57;;;16.40;30.00;;;;;;5073657;28;20227;-70
2023/01/22 06:24:24;;;;;;;7.68;5.43;;;16.40;30.10;;;;;;5073244;28;20709;-70
2023/01/22 06:26:51;;;;;;;7.32;5.78;;;16.40;30.00;;;;;;5073419;28;20215;-70
2023/01/22 06:29:18;;;;;;;7.47;5.50;;;16.40;30.00;;;;;;5073563;28;20187;-70
2023/01/22 06:31:45;;;;;;;6.25;5.00;;;16.30;30.00;;;;;;5073390;28;20230;-70
2023/01/22 06:34:13;;;;;;;8.88;6.40;;;16.40;30.10;;;;;;5073540;28;20619;-71
2023/01/22 06:36:40;;;;;;;7.90;5.35;;;16.40;30.10;;;;;;5072932;28;20211;-70
2023/01/22 06:39:09;;;;;;;7.47;5.53;;;16.30;30.00;;;;;;5071465;28;20222;-70
2023/01/22 06:41:36;;;;;;;7.57;5.93;;;16.40;30.10;;;;;;5073353;28;20223;-70
2023/01/22 06:44:03;;;;;;;7.75;5.35;;;16.40;30.10;;;;;;5073195;28;20241;-70
2023/01/22 06:46:30;;;;;;;6.95;5.25;;;16.40;30.10;;;;;;5072024;28;20256;-70
2023/01/22 06:49:00;;;;;;;7.55;5.03;;;16.30;30.00;;;;;;5073080;28;20187;-70
2023/01/22 06:51:29;;;;;;;6.30;4.95;;;16.30;30.00;;;;;;5072984;28;20313;-70
2023/01/22 06:53:56;;;;;;;7.43;5.53;;;16.30;30.00;;;;;;5073872;28;20268;-70
2023/01/22 06:56:24;;;;;;;7.75;5.72;;;16.30;30.00;;;;;;5072598;28;20288;-70
2023/01/22 06:58:52;;;;;;;8.60;5.80;;;16.30;30.00;;;;;;5073476;28;20195;-70
2023/01/22 07:01:19;;;;;;;7.57;5.55;;;16.30;30.00;;;;;;5072900;28;20215;-71
2023/01/22 07:03:46;;;;;;;7.30;5.30;;;16.30;30.60;;;;;;5073158;28;20599;-70
2023/01/22 07:06:17;;;;;;;8.13;5.68;;;16.30;30.00;;;;;;5071564;28;20214;-70
2023/01/22 07:08:45;;;;;;;7.90;5.45;;;16.30;30.00;;;;;;5072510;28;20195;-70
2023/01/22 07:11:13;;;;;;;7.75;5.18;;;16.30;30.00;;;;;;5072235;28;20271;-70
2023/01/22 07:13:41;;;;;;;8.77;5.30;;;16.30;30.00;;;;;;5073041;28;20187;-70
2023/01/22 07:16:09;;;;;;;6.40;5.63;;;16.30;30.00;;;;;;5072466;28;20225;-71
2023/01/22 07:18:36;;;;;;;6.85;5.57;;;16.30;30.00;;;;;;5071419;28;20672;-70
2023/01/22 07:21:05;;;;;;;8.30;6.20;;;16.30;30.00;;;;;;5073071;28;20195;-70
2023/01/22 07:23:32;;;;;;;7.32;5.20;;;16.30;30.00;;;;;;5072683;28;20236;-70
2023/01/22 07:25:59;;;;;;;7.20;5.40;;;16.30;30.00;;;;;;5072208;28;20190;-70
2023/01/22 07:28:26;;;;;;;7.85;5.78;;;16.30;30.00;;;;;;5072248;28;20191;-70
2023/01/22 07:30:56;;;;;;;8.55;5.60;;;16.30;30.00;;;;;;5072102;28;20264;-70
2023/01/22 07:33:23;;;;;;;7.50;5.55;;;16.30;30.00;;;;;;5070928;28;20194;-70
2023/01/22 07:35:56;;;;;;;8.32;5.70;;;16.30;30.00;;;;;;5072680;28;20241;-70
2023/01/22 07:38:24;;;;;;;7.07;5.47;;;16.30;30.00;;;;;;5072454;28;20194;-70
2023/01/22 07:40:51;;;;;;;8.68;5.70;;;16.30;30.10;;;;;;5072383;28;20627;-70
2023/01/22 07:43:18;;;;;;;8.48;5.13;;;16.20;30.00;;;;;;5071216;28;20240;-70
2023/01/22 07:45:45;;;;;;;7.82;5.63;;;16.20;30.00;;;;;;5071903;28;20186;-70
2023/01/22 07:48:14;;;;;;;8.07;5.78;;;16.20;30.00;;;;;;5072309;28;20280;-70
2023/01/22 07:50:41;;;;;;;8.48;5.82;;;16.20;30.00;;;;;;5073597;28;20252;-71
2023/01/22 07:53:10;;;;;;;8.57;6.05;;;16.20;30.00;;;;;;5076359;28;20268;-70
2023/01/22 07:55:37;;;;;;;8.10;5.82;;;16.20;30.00;;;;;;5074615;28;20236;-71
2023/01/22 07:58:06;;;;;;;8.05;6.07;;;16.20;30.00;;;;;;5076478;28;20218;-71
2023/01/22 08:00:35;;;;;;;9.35;6.30;;;16.20;30.00;;;;;;5076036;28;20232;-70
2023/01/22 08:03:03;;;;;;;7.07;5.53;;;16.20;30.00;;;;;;5074706;28;20218;-70
2023/01/22 08:05:32;;;;;;;7.85;5.47;;;16.20;30.00;;;;;;5076220;28;20252;-71
2023/01/22 08:07:59;;;;;;;8.00;5.75;;;16.20;30.00;;;;;;5076382;28;20215;-70
2023/01/22 08:10:26;;;;;;;9.00;6.32;;;16.20;30.00;;;;;;5076213;28;20610;-70
2023/01/22 08:12:54;;;;;;;7.85;6.03;;;16.20;30.00;;;;;;5076234;28;20291;-70
2023/01/22 08:15:21;;;;;;;8.43;5.68;;;16.20;30.00;;;;;;5075063;28;20191;-70
2023/01/22 08:17:49;;;;;;;7.80;5.93;;;16.20;30.00;;;;;;5076032;28;20219;-70
2023/01/22 08:20:17;;;;;;;9.48;5.93;;;16.20;30.00;;;;;;5075720;28;20187;-70
2023/01/22 08:22:46;;;;;;;7.88;5.78;;;16.20;30.00;;;;;;5075778;28;20264;-70
2023/01/22 08:25:13;;;;;;;9.13;6.55;;;16.10;30.00;;;;;;5075962;28;20629;-70
2023/01/22 08:27:40;;;;;;;8.82;6.25;;;16.10;30.00;;;;;;5075763;28;20219;-71
2023/01/22 08:30:10;;;;;;;8.13;6.18;;;16.10;30.00;;;;;;5075769;28;20199;-70
2023/01/22 08:32:38;;;;;;;8.18;6.18;;;16.10;30.10;;;;;;5071791;28;20253;-70
2023/01/22 08:35:06;;;;;;;9.95;6.03;;;16.10;30.10;;;;;;5075420;28;20722;-70
2023/01/22 08:37:33;;;;;;;8.05;6.00;;;16.10;30.10;;;;;;5074753;28;20219;-70
2023/01/22 08:40:01;;;;;;;8.13;5.78;;;16.10;30.10;;;;;;5074397;28;20244;-71
2023/01/22 08:42:28;;;;;;;7.50;6.05;;;16.10;30.10;;;;;;5075648;28;20223;-70
2023/01/22 08:44:56;;;;;;;7.90;6.18;;;16.10;30.10;;;;;;5075481;28;20187;-71
2023/01/22 08:47:23;;;;;;;7.07;5.38;;;16.10;30.10;;;;;;5075073;28;20716;-70
2023/01/22 08:49:50;;;;;;;8.07;5.60;;;16.10;30.20;;;;;;5075364;28;20191;-70
2023/01/22 08:52:17;;;;;;;8.18;6.00;;;16.10;30.20;;;;;;5075011;28;20238;-71
2023/01/22 08:54:44;;;;;;;7.53;6.13;;;16.10;30.30;;;;;;5073821;28;20190;-70
2023/01/22 08:57:13;;;;;;;7.75;5.82;;;16.10;30.30;;;;;;5074119;28;20269;-71
2023/01/22 08:59:40;;;;;;;9.00;6.00;;;16.10;30.30;;;;;;5075519;28;20195;-70
2023/01/22 09:02:11;;;;;;;9.18;6.00;;;16.10;30.30;;;;;;5074564;28;20280;-70
2023/01/22 09:04:39;;;;;;;9.90;6.07;;;16.10;30.30;;;;;;5074757;28;20213;-70
2023/01/22 09:07:06;;;;;;;8.45;6.45;;;16.10;30.30;;;;;;5075305;28;20260;-70
2023/01/22 09:09:33;;;;;;;9.90;6.70;;;16.10;30.30;;;;;;5074751;28;20191;-70
2023/01/22 09:12:00;;;;;;;9.15;5.93;;;16.10;30.40;;;;;;5074957;28;20227;-71
2023/01/22 09:14:28;;;;;;;8.38;5.90;;;16.10;30.40;;;;;;5074649;28;20637;-70
2023/01/22 09:16:57;;;;;;;7.38;6.00;;;16.10;30.40;;;;;;5074965;28;20227;-71
2023/01/22 09:19:24;;;;;;;7.38;5.75;;;16.10;30.40;;;;;;5074975;28;20190;-70
2023/01/22 09:21:51;;;;;;;8.18;6.40;;;16.10;30.40;;;;;;5074831;28;20215;-70
2023/01/22 09:24:18;;;;;;;7.95;5.90;;;16.10;30.40;;;;;;5074765;28;20190;-70
2023/01/22 09:26:45;;;;;;;7.88;5.95;;;16.10;30.40;;;;;;5074344;28;20696;-70
2023/01/22 09:29:12;;;;;;;8.70;6.07;;;16.10;30.50;;;;;;5074404;28;20195;-70
2023/01/22 09:31:41;;;;;;;8.73;5.60;;;16.10;30.50;;;;;;5074560;28;20296;-71
2023/01/22 09:34:08;;;;;;;9.15;6.13;;;16.10;30.50;;;;;;5074337;28;20195;-70
2023/01/22 09:36:35;;;;;;;10.80;5.55;;;16.10;30.50;;;;;;5074363;28;20218;-70
2023/01/22 09:39:02;;;;;;;8.60;6.03;;;16.10;30.60;;;;;;5074248;28;20669;-70
2023/01/22 09:41:33;;;;;;;7.72;5.80;;;16.00;30.50;;;;;;5074681;28;20219;-70
2023/01/22 09:44:03;;;;;;;8.45;5.93;;;16.00;30.50;;;;;;5074358;28;20669;-70
2023/01/22 09:46:34;;;;;;;8.35;6.05;;;16.00;30.60;;;;;;5074387;28;20215;-70
2023/01/22 09:49:08;;;;;;;8.90;6.03;;;16.10;30.70;;;;;;5074338;28;20241;-70
2023/01/22 09:51:35;;;;;;;7.43;5.70;;;16.00;30.60;;;;;;5074102;28;20692;-71
2023/01/22 09:54:06;;;;;;;8.45;5.68;;;16.00;30.60;;;;;;5074142;28;20622;-70
2023/01/22 09:56:39;;;;;;;8.05;5.60;;;16.00;30.60;;;;;;5072715;28;20246;-70
2023/01/22 09:59:11;;;;;;;7.72;6.05;;;16.00;30.60;;;;;;5073925;28;20203;-71
2023/01/22 10:01:39;;;;;;;8.38;5.80;;;16.00;30.60;;;;;;5073965;28;20291;-70
2023/01/22 10:04:20;;;;;;;7.78;6.00;;;16.00;30.60;;;;;;5074000;28;20183;-70
2023/01/22 10:06:49;;;;;;;8.48;5.88;;;16.00;30.70;;;;;;5073775;28;20761;-70
2023/01/22 10:09:19;;;;;;;8.27;5.63;;;16.00;30.70;;;;;;5074667;28;20232;-70
2023/01/22 10:11:50;;;;;;;8.20;6.00;;;16.00;30.80;;;;;;5073763;28;20223;-71
2023/01/22 10:14:20;;;;;;;8.20;5.88;;;16.00;30.80;;;;;;5073201;28;20218;-70
2023/01/22 10:16:48;;;;;;;8.45;6.00;;;16.00;30.90;;;;;;5073344;28;20642;-70
2023/01/22 10:19:22;;;;;;;8.60;6.25;;;16.00;30.90;;;;;;5073723;28;20245;-70
2023/01/22 10:21:52;;;;;;;8.18;5.68;;;16.00;30.90;;;;;;5073668;28;20271;-70
2023/01/22 10:24:19;;;;;;;8.00;5.65;;;16.00;30.90;;;;;;5073553;28;20183;-71
2023/01/22 10:26:48;;;;;;;9.88;6.25;;;16.00;30.90;;;;;;5073533;28;20215;-70
2023/01/22 10:29:25;;;;;;;8.70;5.60;;;16.00;30.90;;;;;;5073572;28;20190;-70
2023/01/22 10:31:55;;;;;;;8.10;6.03;;;16.00;31.00;;;;;;5071818;28;20226;-70
2023/01/22 10:34:29;;;;;;;9.27;6.25;;;16.00;31.00;;;;;;5073616;28;20232;-70
2023/01/22 10:37:00;;;;;;;7.97;6.03;;;16.00;31.10;;;;;;5073392;28;20299;-70
2023/01/22 10:39:27;;;;;;;7.55;6.13;;;16.00;31.10;;;;;;5072956;28;20233;-70
2023/01/22 10:42:02;;;;;;;8.25;5.85;;;16.00;31.10;;;;;;5071655;28;20219;-70
2023/01/22 10:44:29;;;;;;;10.32;6.03;;;16.00;31.10;;;;;;5073202;28;20244;-70
2023/01/22 10:47:08;;;;;;;10.82;6.32;;;16.00;31.10;;;;;;5072978;28;20219;-70
2023/01/22 10:49:37;;;;;;;8.93;6.30;;;16.00;31.20;;;;;;5073210;28;20236;-70
2023/01/22 10:52:07;;;;;;;7.32;5.32;;;16.00;31.20;;;;;;5072642;28;20226;-70
2023/01/22 10:54:38;;;;;;;9.85;6.43;;;16.00;31.20;;;;;;5072497;28;20183;-70
2023/01/22 10:57:07;;;;;;;8.93;6.43;;;16.00;31.30;;;;;;5072632;28;20218;-70
2023/01/22 10:59:34;;;;;;;8.68;5.95;;;16.00;31.30;;;;;;5072725;28;20656;-70
2023/01/22 11:02:03;;;;;;;9.10;6.28;;;16.00;31.40;;;;;;5073012;28;20226;-70
2023/01/22 11:04:33;;;;;;;8.80;5.85;;;16.00;31.40;;;;;;5072742;28;20199;-70
2023/01/22 11:07:06;;;;;;;10.32;7.05;;;16.00;31.40;;;;;;5053954;28;20218;-71
2023/01/22 11:09:41;;;;;;;9.18;6.25;;;16.00;31.40;;;;;;5072424;28;20195;-70
2023/01/22 11:12:15;;;;;;;8.00;6.20;;;16.00;31.40;;;;;;5072358;28;20696;-70
2023/01/22 11:14:45;;;;;;;7.95;5.85;;;16.00;31.40;;;;;;5072595;28;20186;-71
2023/01/22 11:17:20;;;;;;;8.80;6.15;;;16.00;31.50;;;;;;5072312;28;20237;-70
2023/01/22 11:19:54;;;;;;;8.55;5.70;;;16.00;31.50;;;;;;5071187;28;20648;-70
2023/01/22 11:22:27;;;;;;;7.90;6.13;;;16.00;31.50;;;;;;5072369;28;20268;-70
2023/01/22 11:24:55;;;;;;;8.38;6.18;;;16.00;31.60;;;;;;5072444;28;20244;-70
2023/01/22 11:27:42;;;;;;;9.05;6.35;;;16.00;31.70;;;;;;5072133;28;20344;-71
2023/01/22 11:30:42;;;;;;;9.63;6.32;;;16.00;31.70;;;;;;5072825;28;20338;-71
2023/01/22 11:33:19;;;;;;;9.10;5.80;;;15.90;31.70;;;;;;5072298;28;20238;-70
2023/01/22 11:35:52;;;;;;;7.97;6.45;;;16.00;31.70;;;;;;5072439;28;20248;-70
2023/01/22 11:38:30;;;;;;;9.93;6.57;;;15.90;31.70;;;;;;5072631;28;20218;-70
2023/01/22 11:41:10;;;;;;;8.75;6.30;;;15.90;31.70;;;;;;5072319;28;20687;-70
2023/01/22 11:44:00;;;;;;;7.88;5.57;;;15.90;31.80;;;;;;5072654;28;20230;-70
2023/01/22 11:46:51;;;;;;;9.05;6.30;;;16.00;31.90;;;;;;5072293;28;20695;-71
2023/01/22 11:49:33;;;;;;;8.15;6.35;;;15.90;31.80;;;;;;5072337;28;20191;-70
2023/01/22 11:52:13;;;;;;;11.50;6.38;;;15.90;31.90;;;;;;5071931;28;20700;-71
2023/01/22 11:55:10;;;;;;;8.43;5.82;;;15.90;31.90;;;;;;5071791;28;20191;-71
2023/01/22 11:57:42;;;;;;;7.75;5.43;;;16.00;32.00;;;;;;5072824;28;20214;-70
2023/01/22 12:00:35;;;;;;;8.45;5.80;;;15.90;32.00;;;;;;5072304;28;20183;-71
2023/01/22 12:03:37;;;;;;;7.32;5.85;;;15.90;32.10;;;;;;5072129;28;20214;-70
2023/01/22 12:06:15;;;;;;;7.40;5.32;;;15.90;32.10;;;;;;5072439;28;20194;-70
2023/01/22 12:08:51;;;;;;;7.60;5.40;;;15.90;32.10;;;;;;5071144;28;20268;-70
2023/01/22 12:11:52;;;;;;;9.25;6.18;;;15.90;32.10;;;;;;5072065;28;20191;-70
2023/01/22 12:14:28;;;;;;;8.13;5.40;;;15.90;32.20;;;;;;5071762;28;20660;-70
2023/01/22 12:17:03;;;;;;;7.38;5.50;;;15.90;32.20;;;;;;5071743;28;20269;-70
2023/01/22 12:20:03;;;;;;;8.38;5.50;;;15.90;32.20;;;;;;5071821;28;20198;-70
2023/01/22 12:22:38;;;;;;;7.45;5.00;;;16.00;32.40;;;;;;5071839;28;20291;-70
2023/01/22 12:25:21;;;;;;;8.10;5.60;;;16.00;32.40;;;;;;5072296;28;20190;-70
2023/01/22 12:27:55;;;;;;;9.13;5.10;;;15.90;32.40;;;;;;5071994;28;20222;-70
2023/01/22 12:30:27;;;;;;;6.80;5.03;;;16.00;32.50;;;;;;5071966;28;20194;-70
2023/01/22 12:32:58;;;;;;;7.97;5.30;;;15.90;32.40;;;;;;5071799;28;20460;-70
2023/01/22 12:35:28;;;;;;;7.30;5.43;;;15.90;32.40;;;;;;5071516;28;20606;-70
2023/01/22 12:37:59;;;;;;;7.78;5.30;;;16.00;32.50;;;;;;5075434;28;20363;-70
2023/01/22 12:40:41;;;;;;;6.50;4.72;;;15.90;32.50;;;;;;5074018;28;20244;-70
2023/01/22 12:43:10;;;;;;;7.32;5.18;;;15.90;32.50;;;;;;5074238;28;20222;-71
2023/01/22 12:45:45;;;;;;;6.85;5.10;;;15.90;32.50;;;;;;5075461;28;20187;-70
2023/01/22 12:48:23;;;;;;;6.25;4.93;;;15.90;32.60;;;;;;5073827;28;20271;-70
2023/01/22 12:50:52;;;;;;;6.38;4.45;;;15.90;32.60;;;;;;5075000;28;20723;-70
2023/01/22 12:53:25;;;;;;;6.15;5.05;;;15.90;32.60;;;;;;5075405;28;20230;-70
2023/01/22 12:56:00;;;;;;;7.15;5.10;;;15.90;32.70;;;;;;5075027;28;20230;-70
2023/01/22 12:58:33;;;;;;;6.18;4.25;;;15.90;32.80;;;;;;5075093;28;20263;-70
2023/01/22 13:01:06;;;;;;;6.50;4.65;;;15.90;32.80;;;;;;5075180;28;20672;-70
2023/01/22 13:03:34;;;;;;;6.70;4.55;;;15.90;32.80;;;;;;5075331;28;20272;-70
2023/01/22 13:06:03;;;;;;;5.65;4.03;;;15.90;32.80;;;;;;5075086;28;20186;-70
2023/01/22 13:08:41;;;;;;;4.47;3.97;;;15.90;32.90;;;;;;5075241;28;20264;-70